Time;durP1;ratioP1;P1;durP2;ratioP2;P2;SDS_P1;SDS_P2;PMS_P1;PMS_P2;Temp;Humidity;BMP_temperature;BMP_pressure;BME280_temperature;BME280_humidity;BME280_pressure;Samples;Min_cycle;Max_cycle;Signal;HPM_P1;HPM_P2
2024/01/26 00:02:18;;;;;;;12.82;11.02;;;;;;;;;;5015809;28;20040;-69
2024/01/26 00:04:43;;;;;;;14.60;12.25;;;;;;;;;;5017458;28;20067;-69
2024/01/26 00:07:09;;;;;;;14.30;11.43;;;;;;;;;;5016509;28;20037;-69
2024/01/26 00:09:35;;;;;;;11.15;10.30;;;;;;;;;;5013261;28;20034;-69
2024/01/26 00:12:00;;;;;;;12.70;11.55;;;;;;;;;;5020635;28;20033;-69
2024/01/26 00:14:26;;;;;;;13.00;11.70;;;;;;;;;;5018564;28;20041;-69
2024/01/26 00:16:52;;;;;;;12.20;10.90;;;;;;;;;;5021539;28;20102;-69
2024/01/26 00:19:17;;;;;;;12.13;11.13;;;;;;;;;;5017008;28;20041;-69
2024/01/26 00:21:43;;;;;;;14.60;12.60;;;;;;;;;;5017951;28;20029;-69
2024/01/26 00:24:09;;;;;;;13.90;11.85;;;;;;;;;;5017126;28;20044;-69
2024/01/26 00:26:34;;;;;;;12.05;10.95;;;;;;;;;;5015567;28;21785;-69
2024/01/26 00:29:00;;;;;;;12.02;11.02;;;;;;;;;;5020155;28;20506;-69
2024/01/26 00:31:26;;;;;;;11.57;10.68;;;;;;;;;;5020281;28;20045;-69
2024/01/26 00:33:52;;;;;;;10.82;10.02;;;;;;;;;;5020008;28;20060;-69
2024/01/26 00:36:17;;;;;;;10.15;9.45;;;;;;;;;;5016073;28;20490;-69
2024/01/26 00:38:43;;;;;;;10.50;9.77;;;;;;;;;;5014827;28;20088;-69
2024/01/26 00:41:10;;;;;;;9.93;9.23;;;;;;;;;;5011130;28;20038;-69
2024/01/26 00:43:36;;;;;;;10.57;9.65;;;;;;;;;;5024735;28;20233;-69
2024/01/26 00:46:03;;;;;;;9.77;9.07;;;;;;;;;;5015797;28;20041;-69
2024/01/26 00:48:30;;;;;;;9.25;8.65;;;;;;;;;;5019962;28;20040;-69
2024/01/26 00:50:56;;;;;;;9.50;8.80;;;;;;;;;;5016703;28;20037;-69
2024/01/26 00:53:22;;;;;;;8.57;8.07;;;;;;;;;;5022219;28;20065;-69
2024/01/26 00:55:49;;;;;;;8.90;8.30;;;;;;;;;;5020803;28;20037;-69
2024/01/26 00:58:15;;;;;;;9.27;8.57;;;;;;;;;;5017532;28;20040;-69
2024/01/26 01:00:41;;;;;;;8.63;8.13;;;;;;;;;;5018427;28;20519;-69
2024/01/26 01:03:07;;;;;;;9.02;8.50;;;;;;;;;;5014641;28;20033;-69
2024/01/26 01:05:33;;;;;;;9.10;8.52;;;;;;;;;;5024078;28;20760;-69
2024/01/26 01:07:58;;;;;;;8.93;8.43;;;;;;;;;;5012664;28;20048;-69
2024/01/26 01:10:24;;;;;;;8.70;8.10;;;;;;;;;;5017084;28;20071;-69
2024/01/26 01:12:52;;;;;;;8.05;7.60;;;;;;;;;;5019549;28;20032;-69
2024/01/26 01:15:17;;;;;;;8.50;8.00;;;;;;;;;;5021144;28;20615;-69
2024/01/26 01:17:45;;;;;;;7.75;7.30;;;;;;;;;;5014700;28;20045;-69
2024/01/26 01:20:11;;;;;;;8.05;7.57;;;;;;;;;;5020647;28;20030;-69
2024/01/26 01:22:38;;;;;;;8.20;7.70;;;;;;;;;;5016934;28;20064;-69
2024/01/26 01:25:07;;;;;;;7.57;7.18;;;;;;;;;;5018636;28;20095;-69
2024/01/26 01:27:35;;;;;;;8.20;7.50;;;;;;;;;;5014849;28;20774;-69
2024/01/26 01:30:03;;;;;;;7.95;7.30;;;;;;;;;;5015152;28;20047;-69
2024/01/26 01:32:29;;;;;;;7.68;7.28;;;;;;;;;;5018675;28;20135;-69
2024/01/26 01:34:54;;;;;;;7.57;7.10;;;;;;;;;;5020662;28;20048;-69
2024/01/26 01:37:20;;;;;;;8.27;7.72;;;;;;;;;;5011656;28;20033;-69
2024/01/26 01:39:46;;;;;;;7.57;7.18;;;;;;;;;;5028469;28;20380;-69
2024/01/26 01:42:14;;;;;;;7.80;7.30;;;;;;;;;;5020738;28;20099;-69
2024/01/26 01:44:41;;;;;;;7.70;7.20;;;;;;;;;;5018786;28;20052;-69
2024/01/26 01:47:09;;;;;;;7.95;7.45;;;;;;;;;;5027373;28;20044;-69
2024/01/26 01:49:35;;;;;;;7.95;7.45;;;;;;;;;;5017895;28;20053;-69
2024/01/26 01:52:03;;;;;;;7.63;7.20;;;;;;;;;;5020038;28;20033;-69
2024/01/26 01:54:29;;;;;;;7.82;7.43;;;;;;;;;;5020797;28;20076;-69
2024/01/26 01:56:56;;;;;;;8.15;7.65;;;;;;;;;;5019130;28;20033;-69
2024/01/26 01:59:22;;;;;;;7.88;7.38;;;;;;;;;;5022003;28;20777;-69
2024/01/26 02:01:49;;;;;;;7.57;7.18;;;;;;;;;;5022124;28;20633;-69
2024/01/26 02:04:15;;;;;;;7.53;7.13;;;;;;;;;;5017872;28;20116;-69
2024/01/26 02:06:40;;;;;;;7.38;6.97;;;;;;;;;;5025315;28;20585;-69
2024/01/26 02:09:06;;;;;;;7.95;7.50;;;;;;;;;;5020754;28;20659;-69
2024/01/26 02:11:32;;;;;;;7.78;7.32;;;;;;;;;;5013929;28;20040;-69
2024/01/26 02:13:57;;;;;;;7.68;7.28;;;;;;;;;;5025071;28;20044;-69
2024/01/26 02:16:23;;;;;;;7.38;6.97;;;;;;;;;;5025011;28;20084;-69
2024/01/26 02:18:48;;;;;;;8.00;7.50;;;;;;;;;;5024153;28;20028;-69
2024/01/26 02:21:14;;;;;;;8.23;7.72;;;;;;;;;;5018224;28;20041;-69
2024/01/26 02:23:41;;;;;;;7.78;7.28;;;;;;;;;;5028295;28;20052;-69
2024/01/26 02:26:09;;;;;;;7.75;7.15;;;;;;;;;;5019777;28;20045;-69
2024/01/26 02:28:35;;;;;;;7.38;6.97;;;;;;;;;;5025756;28;20049;-69
2024/01/26 02:31:01;;;;;;;7.55;7.05;;;;;;;;;;5021634;28;20748;-69
2024/01/26 02:33:26;;;;;;;7.07;6.68;;;;;;;;;;5019784;28;20041;-69
2024/01/26 02:35:52;;;;;;;7.10;6.60;;;;;;;;;;5028536;28;20064;-69
2024/01/26 02:38:18;;;;;;;7.40;7.00;;;;;;;;;;5022379;28;20041;-69
2024/01/26 02:40:44;;;;;;;7.65;7.25;;;;;;;;;;5021388;28;20048;-69
2024/01/26 02:43:09;;;;;;;8.13;7.53;;;;;;;;;;5022681;28;20084;-69
2024/01/26 02:45:35;;;;;;;7.90;7.15;;;;;;;;;;5022750;28;20037;-69
2024/01/26 02:48:01;;;;;;;7.85;7.43;;;;;;;;;;5013059;28;20095;-69
2024/01/26 02:50:27;;;;;;;8.52;8.00;;;;;;;;;;5022204;28;20029;-69
2024/01/26 02:52:52;;;;;;;8.68;8.18;;;;;;;;;;5021711;28;20107;-69
2024/01/26 02:55:18;;;;;;;8.40;7.80;;;;;;;;;;5018544;28;20053;-69
2024/01/26 02:57:43;;;;;;;8.65;7.90;;;;;;;;;;5018411;28;20041;-69
2024/01/26 03:00:11;;;;;;;8.82;8.15;;;;;;;;;;5022180;28;20040;-69
2024/01/26 03:02:37;;;;;;;8.63;8.00;;;;;;;;;;5018549;28;20052;-69
2024/01/26 03:05:03;;;;;;;8.63;8.02;;;;;;;;;;5021193;28;20040;-69
2024/01/26 03:07:29;;;;;;;9.38;8.68;;;;;;;;;;5017937;28;20041;-69
2024/01/26 03:09:54;;;;;;;9.30;8.15;;;;;;;;;;5013349;28;20309;-69
2024/01/26 03:12:20;;;;;;;8.88;8.27;;;;;;;;;;5020974;28;20150;-69
2024/01/26 03:14:45;;;;;;;8.73;8.15;;;;;;;;;;5012473;28;20056;-69
2024/01/26 03:17:11;;;;;;;8.30;7.80;;;;;;;;;;5011926;28;20037;-69
2024/01/26 03:19:36;;;;;;;9.45;8.80;;;;;;;;;;5018138;28;20045;-69
2024/01/26 03:22:02;;;;;;;8.85;8.27;;;;;;;;;;5015828;28;20037;-69
2024/01/26 03:24:28;;;;;;;9.15;8.30;;;;;;;;;;5015142;28;20038;-69
2024/01/26 03:26:54;;;;;;;8.57;8.07;;;;;;;;;;5016882;28;20049;-69
2024/01/26 03:29:20;;;;;;;8.32;7.82;;;;;;;;;;5020339;28;20037;-69
2024/01/26 03:31:45;;;;;;;8.48;7.88;;;;;;;;;;5019066;28;20624;-69
2024/01/26 03:34:11;;;;;;;8.68;7.97;;;;;;;;;;5015910;28;20037;-69
2024/01/26 03:36:36;;;;;;;8.32;7.82;;;;;;;;;;5021532;28;20491;-69
2024/01/26 03:39:03;;;;;;;8.23;7.72;;;;;;;;;;5021600;28;20041;-69
2024/01/26 03:41:29;;;;;;;9.15;8.45;;;;;;;;;;5024570;28;20280;-69
2024/01/26 03:43:55;;;;;;;8.07;7.57;;;;;;;;;;5023632;28;20728;-69
2024/01/26 03:46:21;;;;;;;8.70;8.10;;;;;;;;;;5019155;28;20545;-69
2024/01/26 03:48:47;;;;;;;8.00;7.50;;;;;;;;;;5016181;28;20052;-69
2024/01/26 03:51:13;;;;;;;8.20;7.70;;;;;;;;;;5021480;28;20063;-69
2024/01/26 03:53:38;;;;;;;8.52;8.00;;;;;;;;;;5020572;28;20116;-69
2024/01/26 03:56:04;;;;;;;8.40;7.90;;;;;;;;;;5023382;28;20036;-69
2024/01/26 03:58:29;;;;;;;8.40;7.90;;;;;;;;;;5013779;28;20067;-69
2024/01/26 04:00:55;;;;;;;8.50;8.00;;;;;;;;;;5028001;28;20371;-69
2024/01/26 04:03:21;;;;;;;9.25;8.55;;;;;;;;;;5016757;28;20422;-69
2024/01/26 04:05:46;;;;;;;8.55;8.05;;;;;;;;;;5027126;28;20045;-69
2024/01/26 04:08:12;;;;;;;8.35;7.80;;;;;;;;;;5013318;28;20294;-69
2024/01/26 04:10:38;;;;;;;8.18;7.68;;;;;;;;;;5020759;28;20052;-69
2024/01/26 04:13:04;;;;;;;8.95;8.25;;;;;;;;;;5027641;28;20383;-69
2024/01/26 04:15:29;;;;;;;8.55;7.95;;;;;;;;;;5018805;28;20471;-69
2024/01/26 04:17:56;;;;;;;8.60;8.10;;;;;;;;;;5030389;28;20032;-69
2024/01/26 04:20:22;;;;;;;9.15;8.50;;;;;;;;;;5021118;28;20504;-69
2024/01/26 04:22:47;;;;;;;8.30;7.80;;;;;;;;;;5025796;28;20040;-69
2024/01/26 04:25:13;;;;;;;8.00;7.45;;;;;;;;;;5020610;28;20071;-69
2024/01/26 04:27:38;;;;;;;7.95;7.45;;;;;;;;;;5021762;28;20076;-69
2024/01/26 04:30:04;;;;;;;7.80;7.30;;;;;;;;;;5021839;28;20215;-69
2024/01/26 04:32:30;;;;;;;8.50;8.00;;;;;;;;;;5025114;28;20033;-69
2024/01/26 04:34:55;;;;;;;8.02;7.53;;;;;;;;;;5025035;28;20306;-69
2024/01/26 04:37:21;;;;;;;7.93;7.53;;;;;;;;;;5017997;28;20061;-69
2024/01/26 04:39:47;;;;;;;8.07;7.28;;;;;;;;;;5012598;28;20087;-69
2024/01/26 04:42:13;;;;;;;8.93;7.38;;;;;;;;;;5024087;28;20495;-69
2024/01/26 04:44:38;;;;;;;8.00;7.30;;;;;;;;;;5022591;28;20048;-69
2024/01/26 04:47:04;;;;;;;8.00;7.60;;;;;;;;;;5018347;28;20040;-69
2024/01/26 04:49:30;;;;;;;7.40;6.90;;;;;;;;;;5019774;28;20542;-69
2024/01/26 04:51:56;;;;;;;6.88;6.47;;;;;;;;;;5018116;28;20578;-69
2024/01/26 04:54:21;;;;;;;7.30;6.90;;;;;;;;;;5025445;28;20048;-69
2024/01/26 04:56:47;;;;;;;7.38;6.88;;;;;;;;;;5017421;28;20466;-69
2024/01/26 04:59:13;;;;;;;7.20;6.80;;;;;;;;;;5014582;28;20560;-69
2024/01/26 05:01:39;;;;;;;6.80;6.40;;;;;;;;;;5023126;28;20040;-69
2024/01/26 05:04:06;;;;;;;7.45;6.97;;;;;;;;;;5019511;28;20037;-69
2024/01/26 05:06:31;;;;;;;7.65;7.15;;;;;;;;;;5021392;28;20472;-69
2024/01/26 05:08:57;;;;;;;7.05;6.45;;;;;;;;;;5019025;28;20049;-69
2024/01/26 05:11:23;;;;;;;7.25;6.80;;;;;;;;;;5018065;28;20036;-69
2024/01/26 05:13:48;;;;;;;7.13;6.65;;;;;;;;;;5024092;28;20120;-69
2024/01/26 05:16:14;;;;;;;7.05;6.65;;;;;;;;;;5011852;28;20046;-69
2024/01/26 05:18:40;;;;;;;6.45;6.15;;;;;;;;;;5013555;28;20299;-69
2024/01/26 05:21:06;;;;;;;7.35;6.85;;;;;;;;;;5022306;28;20056;-69
2024/01/26 05:23:31;;;;;;;7.45;7.05;;;;;;;;;;5018636;28;20041;-69
2024/01/26 05:25:57;;;;;;;7.65;7.00;;;;;;;;;;5021112;28;20048;-69
2024/01/26 05:28:23;;;;;;;7.85;7.25;;;;;;;;;;5024525;28;20103;-69
2024/01/26 05:30:48;;;;;;;7.47;6.90;;;;;;;;;;5024201;28;20033;-69
2024/01/26 05:33:14;;;;;;;7.30;6.90;;;;;;;;;;5022971;28;20046;-69
2024/01/26 05:35:40;;;;;;;6.85;6.35;;;;;;;;;;5024909;28;20510;-69
2024/01/26 05:38:05;;;;;;;7.90;7.40;;;;;;;;;;5022649;28;20107;-69
2024/01/26 05:40:31;;;;;;;7.60;7.10;;;;;;;;;;5020764;28;20048;-69
2024/01/26 05:42:57;;;;;;;7.82;7.25;;;;;;;;;;5023631;28;20033;-69
2024/01/26 05:45:22;;;;;;;7.45;6.88;;;;;;;;;;5028229;28;20324;-69
2024/01/26 05:47:48;;;;;;;7.60;7.10;;;;;;;;;;5026059;28;20602;-69
2024/01/26 05:50:15;;;;;;;7.53;7.13;;;;;;;;;;5019097;28;20528;-69
2024/01/26 05:52:41;;;;;;;8.10;7.60;;;;;;;;;;5025085;28;20490;-69
2024/01/26 05:55:08;;;;;;;7.20;6.80;;;;;;;;;;5021441;28;20052;-69
2024/01/26 05:57:33;;;;;;;7.35;6.80;;;;;;;;;;5031284;28;20284;-69
2024/01/26 05:59:59;;;;;;;7.28;6.82;;;;;;;;;;5021177;28;20530;-69
2024/01/26 06:02:25;;;;;;;7.50;7.00;;;;;;;;;;5025514;28;20022;-69
2024/01/26 06:04:51;;;;;;;7.05;6.65;;;;;;;;;;5022476;28;20037;-69
2024/01/26 06:07:17;;;;;;;7.70;7.10;;;;;;;;;;5025742;28;20037;-69
2024/01/26 06:09:42;;;;;;;7.85;7.30;;;;;;;;;;5028360;28;20067;-69
2024/01/26 06:12:08;;;;;;;8.05;7.45;;;;;;;;;;5022741;28;20133;-69
2024/01/26 06:14:35;;;;;;;7.80;7.20;;;;;;;;;;5026080;28;20045;-69
2024/01/26 06:17:01;;;;;;;7.82;7.25;;;;;;;;;;5027906;28;20095;-69
2024/01/26 06:19:26;;;;;;;7.50;7.10;;;;;;;;;;5023108;28;20387;-69
2024/01/26 06:21:52;;;;;;;7.93;7.22;;;;;;;;;;5025175;28;20091;-69
2024/01/26 06:24:18;;;;;;;8.05;7.50;;;;;;;;;;5022866;28;20029;-69
2024/01/26 06:26:43;;;;;;;7.93;7.53;;;;;;;;;;5027945;28;20102;-69
2024/01/26 06:29:09;;;;;;;7.57;6.88;;;;;;;;;;5020189;28;20034;-69
2024/01/26 06:31:34;;;;;;;7.60;7.20;;;;;;;;;;5029550;28;20032;-69
2024/01/26 06:34:00;;;;;;;7.95;7.45;;;;;;;;;;5025833;28;20569;-69
2024/01/26 06:36:25;;;;;;;7.40;6.90;;;;;;;;;;5023864;28;20962;-69
2024/01/26 06:38:51;;;;;;;7.90;7.40;;;;;;;;;;5027944;28;20510;-68
2024/01/26 06:41:16;;;;;;;7.13;6.68;;;;;;;;;;5027184;28;20616;-69
2024/01/26 06:43:47;;;;;;;7.60;7.10;;;;;;;;;;5031565;28;20071;-69
2024/01/26 06:46:12;;;;;;;7.75;7.15;;;;;;;;;;5021028;28;20048;-69
2024/01/26 06:48:38;;;;;;;7.75;7.25;;;;;;;;;;5024538;28;20148;-69
2024/01/26 06:51:05;;;;;;;7.93;7.45;;;;;;;;;;5021560;28;20037;-69
2024/01/26 06:53:30;;;;;;;8.57;7.50;;;;;;;;;;5025541;28;20048;-69
2024/01/26 06:55:56;;;;;;;7.50;7.10;;;;;;;;;;5024127;28;20330;-69
2024/01/26 06:58:22;;;;;;;7.40;7.00;;;;;;;;;;5020643;28;20041;-69
2024/01/26 07:00:47;;;;;;;7.40;6.90;;;;;;;;;;5027122;28;20136;-69
2024/01/26 07:03:13;;;;;;;7.80;7.18;;;;;;;;;;5023585;28;20033;-69
2024/01/26 07:05:39;;;;;;;7.70;7.20;;;;;;;;;;5021860;28;20029;-69
2024/01/26 07:08:05;;;;;;;7.38;6.97;;;;;;;;;;5024257;28;20928;-69
2024/01/26 07:10:30;;;;;;;7.65;7.00;;;;;;;;;;5024677;28;20221;-69
2024/01/26 07:12:56;;;;;;;7.90;7.18;;;;;;;;;;5026297;28;20033;-69
2024/01/26 07:15:21;;;;;;;7.45;6.95;;;;;;;;;;5019883;28;20128;-69
2024/01/26 07:17:49;;;;;;;7.72;7.30;;;;;;;;;;5022831;28;20311;-69
2024/01/26 07:20:14;;;;;;;7.30;6.90;;;;;;;;;;5022183;28;20033;-69
2024/01/26 07:22:41;;;;;;;7.70;7.10;;;;;;;;;;5027799;28;20250;-69
2024/01/26 07:25:11;;;;;;;7.63;7.10;;;;;;;;;;5018566;28;20561;-69
2024/01/26 07:27:38;;;;;;;7.55;7.05;;;;;;;;;;5027920;28;20119;-69
2024/01/26 07:30:07;;;;;;;7.38;6.93;;;;;;;;;;5029713;28;20449;-68
2024/01/26 07:32:34;;;;;;;7.20;6.80;;;;;;;;;;5023838;28;20029;-70
2024/01/26 07:34:59;;;;;;;7.70;7.00;;;;;;;;;;5023159;28;20513;-70
2024/01/26 07:37:25;;;;;;;7.63;7.03;;;;;;;;;;5025900;28;20177;-70
2024/01/26 07:39:50;;;;;;;7.28;6.70;;;;;;;;;;5023050;28;20043;-69
2024/01/26 07:42:16;;;;;;;7.25;6.80;;;;;;;;;;5024097;28;20033;-69
2024/01/26 07:44:41;;;;;;;7.30;6.90;;;;;;;;;;5024886;28;20038;-70
2024/01/26 07:47:08;;;;;;;7.75;7.10;;;;;;;;;;5025961;28;20069;-69
2024/01/26 07:49:33;;;;;;;7.85;7.35;;;;;;;;;;5020903;28;20181;-70
2024/01/26 07:51:59;;;;;;;6.93;6.53;;;;;;;;;;5024368;28;20055;-69
2024/01/26 07:54:24;;;;;;;7.38;6.97;;;;;;;;;;5022881;28;20041;-69
2024/01/26 07:56:50;;;;;;;7.72;7.22;;;;;;;;;;5022430;28;20049;-69
2024/01/26 07:59:15;;;;;;;7.78;7.28;;;;;;;;;;5021365;28;20048;-69
2024/01/26 08:01:41;;;;;;;7.70;7.15;;;;;;;;;;5021237;28;20177;-69
2024/01/26 08:04:06;;;;;;;7.82;7.32;;;;;;;;;;5025157;28;20449;-69
2024/01/26 08:06:32;;;;;;;7.18;6.78;;;;;;;;;;5025500;28;20048;-69
2024/01/26 08:08:57;;;;;;;7.60;7.20;;;;;;;;;;5023184;28;20045;-69
2024/01/26 08:11:23;;;;;;;7.75;7.30;;;;;;;;;;5017717;28;20026;-69
2024/01/26 08:13:49;;;;;;;7.53;7.13;;;;;;;;;;5026755;28;20573;-69
2024/01/26 08:16:15;;;;;;;7.80;7.20;;;;;;;;;;5020574;28;20072;-70
2024/01/26 08:18:41;;;;;;;8.15;7.55;;;;;;;;;;5024187;28;20154;-70
2024/01/26 08:21:08;;;;;;;7.50;7.10;;;;;;;;;;5026246;28;20090;-69
2024/01/26 08:23:34;;;;;;;7.57;6.90;;;;;;;;;;5017725;28;20319;-70
2024/01/26 08:26:00;;;;;;;7.47;7.07;;;;;;;;;;5024585;28;20070;-71
2024/01/26 08:28:26;;;;;;;7.85;7.35;;;;;;;;;;5025360;28;20462;-70
2024/01/26 08:30:51;;;;;;;7.63;7.22;;;;;;;;;;5019159;28;20491;-70
2024/01/26 08:33:17;;;;;;;7.88;7.38;;;;;;;;;;5019018;28;20144;-70
2024/01/26 08:35:42;;;;;;;8.13;7.53;;;;;;;;;;5027848;28;20041;-70
2024/01/26 08:38:08;;;;;;;7.50;7.10;;;;;;;;;;5025710;28;20163;-70
2024/01/26 08:40:33;;;;;;;7.78;7.32;;;;;;;;;;5023511;28;20047;-70
2024/01/26 08:42:59;;;;;;;7.28;6.78;;;;;;;;;;5025225;28;20037;-70
2024/01/26 08:45:24;;;;;;;7.40;7.00;;;;;;;;;;5024432;28;20045;-70
2024/01/26 08:47:51;;;;;;;7.47;6.88;;;;;;;;;;5020787;28;20037;-70
2024/01/26 08:50:17;;;;;;;7.70;7.20;;;;;;;;;;5018193;28;20041;-70
2024/01/26 08:52:43;;;;;;;7.38;6.90;;;;;;;;;;5025794;28;20442;-70
2024/01/26 08:55:09;;;;;;;7.53;7.13;;;;;;;;;;5023888;28;20041;-69
2024/01/26 08:57:34;;;;;;;7.32;6.82;;;;;;;;;;5018969;28;20514;-70
2024/01/26 09:00:03;;;;;;;7.50;6.95;;;;;;;;;;5021710;28;20056;-70
2024/01/26 09:02:31;;;;;;;7.18;6.78;;;;;;;;;;5018814;28;20056;-69
2024/01/26 09:04:57;;;;;;;6.95;6.63;;;;;;;;;;5020018;28;20045;-69
2024/01/26 09:07:23;;;;;;;6.85;6.55;;;;;;;;;;5019924;28;20033;-69
2024/01/26 09:09:48;;;;;;;7.25;6.85;;;;;;;;;;5028982;28;20279;-69
2024/01/26 09:12:14;;;;;;;7.68;7.25;;;;;;;;;;5019147;28;20036;-69
2024/01/26 09:14:39;;;;;;;7.47;7.07;;;;;;;;;;5018113;28;20037;-69
2024/01/26 09:17:07;;;;;;;7.38;6.97;;;;;;;;;;5022334;28;20489;-69
2024/01/26 09:19:32;;;;;;;7.20;6.80;;;;;;;;;;5016598;28;21080;-69
2024/01/26 09:21:58;;;;;;;7.50;7.10;;;;;;;;;;5025015;28;20483;-70
2024/01/26 09:24:23;;;;;;;7.40;6.90;;;;;;;;;;5022975;28;20080;-70
2024/01/26 09:26:49;;;;;;;7.65;6.95;;;;;;;;;;5023803;28;20044;-70
2024/01/26 09:29:15;;;;;;;7.82;7.32;;;;;;;;;;5018372;28;20044;-70
2024/01/26 09:31:41;;;;;;;7.18;6.78;;;;;;;;;;5028563;28;20021;-69
2024/01/26 09:34:06;;;;;;;7.72;7.22;;;;;;;;;;5019914;28;20041;-70
2024/01/26 09:36:32;;;;;;;7.88;7.22;;;;;;;;;;5019136;28;20045;-70
2024/01/26 09:38:59;;;;;;;6.97;6.57;;;;;;;;;;5026047;28;20454;-70
2024/01/26 09:41:25;;;;;;;7.35;6.95;;;;;;;;;;5023070;28;20163;-69
2024/01/26 09:43:51;;;;;;;6.60;6.03;;;;;;;;;;5022358;28;20616;-69
2024/01/26 09:46:17;;;;;;;7.03;6.53;;;;;;;;;;5021180;28;20065;-69
2024/01/26 09:48:44;;;;;;;6.85;6.25;;;;;;;;;;5015268;22;20144;-82
2024/01/26 09:51:10;;;;;;;6.63;6.20;;;;;;;;;;4986487;28;20037;-82
2024/01/26 09:53:38;;;;;;;6.53;6.13;;;;;;;;;;4977626;28;20411;-82
2024/01/26 09:56:06;;;;;;;6.63;6.18;;;;;;;;;;4986001;28;20049;-81
2024/01/26 09:58:31;;;;;;;6.70;6.30;;;;;;;;;;4996301;28;20694;-80
2024/01/26 10:00:57;;;;;;;7.75;6.60;;;;;;;;;;5011146;28;20144;-82
2024/01/26 10:03:24;;;;;;;6.63;6.13;;;;;;;;;;5002728;28;20044;-81
2024/01/26 10:05:51;;;;;;;6.80;6.40;;;;;;;;;;4983335;28;20095;-81
2024/01/26 10:08:18;;;;;;;7.00;6.60;;;;;;;;;;5011065;28;20040;-81
2024/01/26 10:10:44;;;;;;;6.68;6.28;;;;;;;;;;4987764;28;20041;-82
2024/01/26 10:13:10;;;;;;;6.60;6.20;;;;;;;;;;5001338;28;20117;-81
2024/01/26 10:15:36;;;;;;;6.55;6.15;;;;;;;;;;4974654;28;20680;-81
2024/01/26 10:18:02;;;;;;;7.03;6.57;;;;;;;;;;4985034;28;20042;-81
2024/01/26 10:20:28;;;;;;;7.05;6.50;;;;;;;;;;4984414;28;20045;-81
2024/01/26 10:22:55;;;;;;;6.88;6.47;;;;;;;;;;5004312;28;20037;-81
2024/01/26 10:25:21;;;;;;;7.20;6.75;;;;;;;;;;5003990;28;20033;-81
2024/01/26 10:27:47;;;;;;;6.85;6.45;;;;;;;;;;5021500;28;20033;-81
2024/01/26 10:30:13;;;;;;;7.18;6.40;;;;;;;;;;5016963;28;20127;-82
2024/01/26 10:32:40;;;;;;;7.10;6.50;;;;;;;;;;4984085;28;20034;-81
2024/01/26 10:35:07;;;;;;;7.38;6.75;;;;;;;;;;4991943;28;20033;-81
2024/01/26 10:37:35;;;;;;;6.93;6.43;;;;;;;;;;4992433;28;20632;-82
2024/01/26 10:40:02;;;;;;;7.15;6.63;;;;;;;;;;5013892;28;20038;-82
2024/01/26 10:42:32;;;;;;;8.98;8.13;;;;;;;;;;5008766;28;20037;-82
2024/01/26 10:45:02;;;;;;;6.90;6.50;;;;;;;;;;5025369;28;20038;-81
2024/01/26 10:47:32;;;;;;;6.78;6.38;;;;;;;;;;5006464;28;20062;-82
2024/01/26 10:49:59;;;;;;;6.85;6.45;;;;;;;;;;5002145;28;20064;-82
2024/01/26 10:52:25;;;;;;;6.75;6.28;;;;;;;;;;4999643;28;20097;-82
2024/01/26 10:54:51;;;;;;;7.30;6.80;;;;;;;;;;5021560;28;20025;-81
2024/01/26 10:57:21;;;;;;;7.25;6.68;;;;;;;;;;5013966;28;20026;-81
2024/01/26 10:59:47;;;;;;;7.57;6.97;;;;;;;;;;5014482;28;20053;-82
2024/01/26 11:02:15;;;;;;;7.82;7.00;;;;;;;;;;5032963;28;20034;-81
2024/01/26 11:04:43;;;;;;;7.20;6.80;;;;;;;;;;5011254;28;20098;-82
2024/01/26 11:07:09;;;;;;;7.03;6.63;;;;;;;;;;5033875;28;20128;-81
2024/01/26 11:09:38;;;;;;;7.10;6.63;;;;;;;;;;5030503;28;20041;-82
2024/01/26 11:12:18;;;;;;;;;;;;;;;;;;5029349;28;20113;-82
2024/01/26 11:14:44;;;;;;;7.43;6.93;;;;;;;;;;5015312;28;19909;-80
2024/01/26 11:17:10;;;;;;;6.80;6.40;;;;;;;;;;5000621;28;20036;-81
2024/01/26 11:19:36;;;;;;;7.15;6.43;;;;;;;;;;5023861;28;20030;-81
2024/01/26 11:22:05;;;;;;;6.43;6.03;;;;;;;;;;5007961;28;20179;-81
2024/01/26 11:24:33;;;;;;;6.82;6.30;;;;;;;;;;5008650;28;20041;-82
2024/01/26 11:27:01;;;;;;;7.13;6.72;;;;;;;;;;5012581;28;20045;-82
2024/01/26 11:29:31;;;;;;;6.93;6.43;;;;;;;;;;5007505;28;20037;-82
2024/01/26 11:31:56;;;;;;;;;;;;;;;;;;5010678;28;20294;-82
2024/01/26 11:34:22;;;;;;;6.65;6.25;;;;;;;;;;5021669;28;19936;-81
2024/01/26 11:36:48;;;;;;;6.50;6.10;;;;;;;;;;5015616;28;20037;-81
2024/01/26 11:39:16;;;;;;;7.22;6.50;;;;;;;;;;5024460;28;20284;-82
2024/01/26 11:41:45;;;;;;;6.88;6.47;;;;;;;;;;5019449;28;20040;-81
2024/01/26 11:44:22;;;;;;;7.25;6.85;;;;;;;;;;4988832;28;20042;-81
2024/01/26 11:46:47;;;;;;;7.72;7.03;;;;;;;;;;5018481;28;20053;-81
2024/01/26 11:49:14;;;;;;;7.20;6.70;;;;;;;;;;5001078;28;20034;-81
2024/01/26 11:51:39;;;;;;;7.00;6.40;;;;;;;;;;4978849;28;20603;-81
2024/01/26 11:54:05;;;;;;;7.07;6.57;;;;;;;;;;4985641;28;20046;-82
2024/01/26 11:56:32;;;;;;;7.47;6.70;;;;;;;;;;5004304;28;20661;-81
2024/01/26 11:58:59;;;;;;;6.88;6.38;;;;;;;;;;4986144;28;20030;-81
2024/01/26 12:01:24;;;;;;;7.10;6.60;;;;;;;;;;5001982;28;20483;-82
2024/01/26 12:03:50;;;;;;;6.40;5.93;;;;;;;;;;5000921;28;20075;-82
2024/01/26 12:06:16;;;;;;;6.95;6.47;;;;;;;;;;4988784;28;20045;-81
2024/01/26 12:08:42;;;;;;;7.40;6.80;;;;;;;;;;4988657;28;20682;-81
2024/01/26 12:11:10;;;;;;;6.78;6.38;;;;;;;;;;4996192;28;20046;-81
2024/01/26 12:13:37;;;;;;;6.32;5.97;;;;;;;;;;4987212;28;20034;-81
2024/01/26 12:16:04;;;;;;;6.78;6.38;;;;;;;;;;4984705;28;20655;-82
2024/01/26 12:18:30;;;;;;;7.15;6.65;;;;;;;;;;5001433;28;20116;-81
2024/01/26 12:20:56;;;;;;;7.03;6.63;;;;;;;;;;4992930;28;20574;-82
2024/01/26 12:23:22;;;;;;;7.60;7.00;;;;;;;;;;4994474;28;20042;-82
2024/01/26 12:25:52;;;;;;;7.72;7.25;;;;;;;;;;5014444;28;20589;-81
2024/01/26 12:28:26;;;;;;;7.65;7.15;;;;;;;;;;4996197;28;20606;-82
2024/01/26 12:30:52;;;;;;;7.43;6.93;;;;;;;;;;4995968;28;20041;-81
2024/01/26 12:33:18;;;;;;;7.60;7.00;;;;;;;;;;4986875;28;20767;-81
2024/01/26 12:35:46;;;;;;;7.43;6.93;;;;;;;;;;4983314;28;20461;-81
2024/01/26 12:38:13;;;;;;;7.37;6.77;;;;;;;;;;4980741;28;20328;-81
2024/01/26 12:40:38;;;;;;;7.80;7.30;;;;;;;;;;4974854;28;20127;-81
2024/01/26 12:43:04;;;;;;;6.90;6.50;;;;;;;;;;4981788;28;20057;-81
2024/01/26 12:45:30;;;;;;;7.60;7.00;;;;;;;;;;4973088;28;20037;-81
2024/01/26 12:47:56;;;;;;;7.93;7.40;;;;;;;;;;5004804;28;20045;-81
2024/01/26 12:50:23;;;;;;;7.13;6.72;;;;;;;;;;4987347;28;20029;-81
2024/01/26 12:52:49;;;;;;;7.72;7.13;;;;;;;;;;5001397;28;20125;-81
2024/01/26 12:55:14;;;;;;;8.10;7.53;;;;;;;;;;4972731;28;20133;-81
2024/01/26 12:57:40;;;;;;;8.27;7.68;;;;;;;;;;4991631;28;20111;-81
2024/01/26 13:00:06;;;;;;;7.78;7.28;;;;;;;;;;4980354;28;20037;-81
2024/01/26 13:02:35;;;;;;;7.43;6.93;;;;;;;;;;5000169;28;20030;-81
2024/01/26 13:05:02;;;;;;;7.55;7.05;;;;;;;;;;4988067;28;20034;-81
2024/01/26 13:07:30;;;;;;;7.50;7.00;;;;;;;;;;4998995;28;20025;-81
2024/01/26 13:09:56;;;;;;;7.30;6.90;;;;;;;;;;4980960;28;20073;-81
2024/01/26 13:12:22;;;;;;;8.02;7.45;;;;;;;;;;4980887;28;20092;-81
2024/01/26 13:14:48;;;;;;;7.88;7.38;;;;;;;;;;4982697;28;20049;-81
2024/01/26 13:17:13;;;;;;;7.30;6.90;;;;;;;;;;5006863;28;20037;-81
2024/01/26 13:19:39;;;;;;;8.02;7.43;;;;;;;;;;4984681;28;20044;-81
2024/01/26 13:22:04;;;;;;;7.55;7.05;;;;;;;;;;4990112;28;20030;-81
2024/01/26 13:24:30;;;;;;;7.25;6.85;;;;;;;;;;4967125;28;20045;-81
2024/01/26 13:26:56;;;;;;;7.70;7.20;;;;;;;;;;4974072;28;20034;-81
2024/01/26 13:29:23;;;;;;;7.50;7.10;;;;;;;;;;4986215;28;20045;-81
2024/01/26 13:31:49;;;;;;;7.78;7.25;;;;;;;;;;4999115;28;20771;-82
2024/01/26 13:34:15;;;;;;;7.00;6.60;;;;;;;;;;5002293;28;20049;-81
2024/01/26 13:36:42;;;;;;;7.13;6.63;;;;;;;;;;4993526;28;20041;-81
2024/01/26 13:39:10;;;;;;;6.85;6.45;;;;;;;;;;4992726;28;20551;-81
2024/01/26 13:41:38;;;;;;;7.97;7.18;;;;;;;;;;4989385;28;20106;-81
2024/01/26 13:44:04;;;;;;;7.80;7.30;;;;;;;;;;4987049;28;20103;-80
2024/01/26 13:46:29;;;;;;;7.38;6.88;;;;;;;;;;5002385;28;20037;-81
2024/01/26 13:48:56;;;;;;;7.03;6.63;;;;;;;;;;4984633;28;20795;-82
2024/01/26 13:51:22;;;;;;;8.07;7.43;;;;;;;;;;4978634;28;20037;-81
2024/01/26 13:53:48;;;;;;;7.95;7.35;;;;;;;;;;5002220;28;20103;-81
2024/01/26 13:56:16;;;;;;;7.68;7.18;;;;;;;;;;5014306;28;20033;-81
2024/01/26 13:58:42;;;;;;;7.87;7.17;;;;;;;;;;5003250;28;20077;-80
2024/01/26 14:01:09;;;;;;;8.77;7.95;;;;;;;;;;4991076;28;20072;-81
2024/01/26 14:03:34;;;;;;;8.35;7.78;;;;;;;;;;4991447;28;20091;-81
2024/01/26 14:06:00;;;;;;;8.43;7.90;;;;;;;;;;4995509;28;20065;-82
2024/01/26 14:08:26;;;;;;;8.10;7.45;;;;;;;;;;5000388;28;20427;-82
2024/01/26 14:10:52;;;;;;;8.45;7.95;;;;;;;;;;5004466;28;20095;-82
2024/01/26 14:13:17;;;;;;;8.40;7.90;;;;;;;;;;4990139;28;20029;-82
2024/01/26 14:15:43;;;;;;;8.35;7.85;;;;;;;;;;5003950;28;20071;-82
2024/01/26 14:18:11;;;;;;;8.77;8.27;;;;;;;;;;4987834;28;20107;-82
2024/01/26 14:20:36;;;;;;;8.60;8.10;;;;;;;;;;4999436;28;20071;-82
2024/01/26 14:23:03;;;;;;;11.55;8.65;;;;;;;;;;4986862;28;20920;-82
2024/01/26 14:25:28;;;;;;;9.15;8.60;;;;;;;;;;4999688;28;20038;-82
2024/01/26 14:27:54;;;;;;;9.40;8.80;;;;;;;;;;5001105;28;20095;-82
2024/01/26 14:30:22;;;;;;;9.43;8.82;;;;;;;;;;4987773;28;20063;-82
2024/01/26 14:32:48;;;;;;;9.73;9.07;;;;;;;;;;5022036;28;20033;-83
2024/01/26 14:35:17;;;;;;;9.38;8.57;;;;;;;;;;4989110;28;20041;-82
2024/01/26 14:37:44;;;;;;;9.25;8.70;;;;;;;;;;4998060;28;20068;-82